EDVK/KSF METAR and TAF weather

Enter ICAO airport designator
Station Type Date Time Source
EDVK METAR 2018/04/26 14:50 UTC NOAA

EDVK 261450Z 29005KT 220V330 9999 VCSH FEW010 SCT026 BKN055 12/06 Q1016


Station Type Date Time Source
EDVK Decoded METAR 2018/04/26 14:50 UTC NOAA

Kassel / Calden, Germany (EDVK) 51-24N 009-23E 283M
Apr 26, 2018 - 10:50 AM EDT / 2018.04.26 1450 UTC
Wind: from the WNW (290 degrees) at 6 MPH (5 KT) (direction variable):0
Visibility: greater than 7 mile(s):0
Sky conditions: mostly cloudy
Weather: showers in the vicinity
Temperature: 53 F (12 C)
Dew Point: 42 F (6 C)
Relative Humidity: 66%
Pressure (altimeter): 30.00 in. Hg (1016 hPa)
ob: EDVK 261450Z 29005KT 220V330 9999 VCSH FEW010 SCT026 BKN055 12/06 Q1016
cycle: 15

Station Type Date Time Source
EDVK TAF 2011/03/23 07:09 UTC NOAA

TAF COR EDVK 230655Z 2307/2321 30002KT 3500 BR SCT025 PROB30
TEMPO 2307/2309 1400 BCFG
BECMG 2307/2310 01007KT 8000


Example: see airport list